sensor_id;sensor_type;location;lat;lon;timestamp;P1;durP1;ratioP1;P2;durP2;ratioP2
72404;SDS011;60395;52.020;113.548;2023-03-01T00:00:12;7.88;;;2.92;;
72404;SDS011;60395;52.020;113.548;2023-03-01T00:03:17;6.05;;;2.60;;
72404;SDS011;60395;52.020;113.548;2023-03-01T00:06:26;6.15;;;2.92;;
72404;SDS011;60395;52.020;113.548;2023-03-01T00:09:35;6.65;;;2.92;;
72404;SDS011;60395;52.020;113.548;2023-03-01T00:12:49;7.18;;;3.30;;
72404;SDS011;60395;52.020;113.548;2023-03-01T00:16:08;5.32;;;2.40;;
72404;SDS011;60395;52.020;113.548;2023-03-01T00:22:20;10.15;;;3.67;;
72404;SDS011;60395;52.020;113.548;2023-03-01T00:25:25;6.55;;;3.47;;
72404;SDS011;60395;52.020;113.548;2023-03-01T00:28:29;11.45;;;4.15;;
72404;SDS011;60395;52.020;113.548;2023-03-01T00:31:36;9.25;;;3.60;;
72404;SDS011;60395;52.020;113.548;2023-03-01T00:34:40;25.95;;;4.80;;
72404;SDS011;60395;52.020;113.548;2023-03-01T00:37:44;9.07;;;4.25;;
72404;SDS011;60395;52.020;113.548;2023-03-01T00:43:52;21.30;;;6.80;;
72404;SDS011;60395;52.020;113.548;2023-03-01T00:46:56;31.45;;;12.38;;
72404;SDS011;60395;52.020;113.548;2023-03-01T00:50:00;18.77;;;6.57;;
72404;SDS011;60395;52.020;113.548;2023-03-01T00:53:14;34.92;;;11.80;;
72404;SDS011;60395;52.020;113.548;2023-03-01T00:56:18;19.25;;;7.18;;
72404;SDS011;60395;52.020;113.548;2023-03-01T00:59:22;45.05;;;13.57;;
72404;SDS011;60395;52.020;113.548;2023-03-01T01:02:26;103.17;;;28.10;;
72404;SDS011;60395;52.020;113.548;2023-03-01T01:05:29;87.38;;;26.90;;
72404;SDS011;60395;52.020;113.548;2023-03-01T01:08:33;174.13;;;46.40;;
72404;SDS011;60395;52.020;113.548;2023-03-01T01:11:36;36.38;;;11.60;;
72404;SDS011;60395;52.020;113.548;2023-03-01T01:14:40;36.35;;;11.70;;
72404;SDS011;60395;52.020;113.548;2023-03-01T01:17:43;32.47;;;9.57;;
72404;SDS011;60395;52.020;113.548;2023-03-01T01:20:46;25.50;;;6.05;;
72404;SDS011;60395;52.020;113.548;2023-03-01T01:23:50;17.65;;;5.65;;
72404;SDS011;60395;52.020;113.548;2023-03-01T01:26:56;28.50;;;8.85;;
72404;SDS011;60395;52.020;113.548;2023-03-01T01:29:59;108.28;;;31.20;;
72404;SDS011;60395;52.020;113.548;2023-03-01T01:33:03;59.50;;;17.27;;
72404;SDS011;60395;52.020;113.548;2023-03-01T01:36:06;127.05;;;35.00;;
72404;SDS011;60395;52.020;113.548;2023-03-01T01:39:10;78.82;;;24.63;;
72404;SDS011;60395;52.020;113.548;2023-03-01T01:42:16;128.77;;;38.78;;
72404;SDS011;60395;52.020;113.548;2023-03-01T01:45:28;49.97;;;14.95;;
72404;SDS011;60395;52.020;113.548;2023-03-01T01:51:47;124.38;;;40.17;;
72404;SDS011;60395;52.020;113.548;2023-03-01T01:54:56;77.63;;;26.30;;
72404;SDS011;60395;52.020;113.548;2023-03-01T01:58:02;111.43;;;34.33;;
72404;SDS011;60395;52.020;113.548;2023-03-01T02:01:07;107.18;;;30.15;;
72404;SDS011;60395;52.020;113.548;2023-03-01T02:04:11;51.20;;;20.33;;
72404;SDS011;60395;52.020;113.548;2023-03-01T02:07:23;104.97;;;35.97;;
72404;SDS011;60395;52.020;113.548;2023-03-01T02:10:28;59.25;;;21.35;;
72404;SDS011;60395;52.020;113.548;2023-03-01T02:13:35;86.97;;;24.10;;
72404;SDS011;60395;52.020;113.548;2023-03-01T02:16:39;35.95;;;16.00;;
72404;SDS011;60395;52.020;113.548;2023-03-01T02:23:02;24.83;;;9.98;;
72404;SDS011;60395;52.020;113.548;2023-03-01T02:29:17;34.03;;;11.05;;
72404;SDS011;60395;52.020;113.548;2023-03-01T02:32:21;30.48;;;10.93;;
72404;SDS011;60395;52.020;113.548;2023-03-01T02:35:27;33.25;;;9.77;;
72404;SDS011;60395;52.020;113.548;2023-03-01T02:38:33;30.23;;;11.45;;
72404;SDS011;60395;52.020;113.548;2023-03-01T02:41:36;42.25;;;11.75;;
72404;SDS011;60395;52.020;113.548;2023-03-01T02:44:41;78.95;;;11.23;;
72404;SDS011;60395;52.020;113.548;2023-03-01T02:47:44;42.65;;;8.73;;
72404;SDS011;60395;52.020;113.548;2023-03-01T02:54:22;53.83;;;10.02;;
72404;SDS011;60395;52.020;113.548;2023-03-01T02:57:27;51.47;;;7.88;;
72404;SDS011;60395;52.020;113.548;2023-03-01T03:00:35;44.33;;;8.57;;
72404;SDS011;60395;52.020;113.548;2023-03-01T03:03:49;29.48;;;7.28;;
72404;SDS011;60395;52.020;113.548;2023-03-01T03:06:58;34.70;;;6.75;;
72404;SDS011;60395;52.020;113.548;2023-03-01T03:10:03;19.48;;;5.85;;
72404;SDS011;60395;52.020;113.548;2023-03-01T03:13:12;17.13;;;4.78;;
72404;SDS011;60395;52.020;113.548;2023-03-01T03:16:17;9.65;;;4.20;;
72404;SDS011;60395;52.020;113.548;2023-03-01T03:19:21;13.18;;;4.70;;
72404;SDS011;60395;52.020;113.548;2023-03-01T03:22:25;16.25;;;4.32;;
72404;SDS011;60395;52.020;113.548;2023-03-01T03:25:31;7.10;;;2.95;;
72404;SDS011;60395;52.020;113.548;2023-03-01T03:28:34;8.80;;;3.83;;
72404;SDS011;60395;52.020;113.548;2023-03-01T03:31:38;9.23;;;3.20;;
72404;SDS011;60395;52.020;113.548;2023-03-01T03:34:41;9.73;;;4.00;;
72404;SDS011;60395;52.020;113.548;2023-03-01T03:37:45;15.30;;;3.63;;
72404;SDS011;60395;52.020;113.548;2023-03-01T03:41:07;8.05;;;3.38;;
72404;SDS011;60395;52.020;113.548;2023-03-01T03:44:10;10.32;;;4.30;;
72404;SDS011;60395;52.020;113.548;2023-03-01T03:47:14;7.97;;;3.10;;
72404;SDS011;60395;52.020;113.548;2023-03-01T03:50:17;6.22;;;3.15;;
72404;SDS011;60395;52.020;113.548;2023-03-01T03:53:21;9.98;;;3.10;;
72404;SDS011;60395;52.020;113.548;2023-03-01T03:56:27;11.88;;;3.50;;
72404;SDS011;60395;52.020;113.548;2023-03-01T03:59:31;9.32;;;3.22;;
72404;SDS011;60395;52.020;113.548;2023-03-01T04:02:34;6.32;;;3.03;;
72404;SDS011;60395;52.020;113.548;2023-03-01T04:05:38;6.45;;;3.45;;
72404;SDS011;60395;52.020;113.548;2023-03-01T04:08:42;12.70;;;3.40;;
72404;SDS011;60395;52.020;113.548;2023-03-01T04:11:45;8.65;;;3.40;;
72404;SDS011;60395;52.020;113.548;2023-03-01T04:14:51;11.85;;;3.85;;
72404;SDS011;60395;52.020;113.548;2023-03-01T04:17:55;18.58;;;4.82;;
72404;SDS011;60395;52.020;113.548;2023-03-01T04:20:59;16.52;;;4.80;;
72404;SDS011;60395;52.020;113.548;2023-03-01T04:24:05;11.75;;;4.60;;
72404;SDS011;60395;52.020;113.548;2023-03-01T04:27:55;9.88;;;4.30;;
72404;SDS011;60395;52.020;113.548;2023-03-01T04:31:32;20.15;;;5.38;;
72404;SDS011;60395;52.020;113.548;2023-03-01T04:34:50;11.60;;;4.70;;
72404;SDS011;60395;52.020;113.548;2023-03-01T04:38:21;10.70;;;4.88;;
72404;SDS011;60395;52.020;113.548;2023-03-01T04:41:53;13.20;;;4.50;;
72404;SDS011;60395;52.020;113.548;2023-03-01T04:44:57;9.65;;;3.25;;
72404;SDS011;60395;52.020;113.548;2023-03-01T04:48:00;7.93;;;3.40;;
72404;SDS011;60395;52.020;113.548;2023-03-01T04:51:03;6.47;;;2.70;;
72404;SDS011;60395;52.020;113.548;2023-03-01T04:54:08;8.65;;;2.72;;
72404;SDS011;60395;52.020;113.548;2023-03-01T04:57:12;13.50;;;3.17;;
72404;SDS011;60395;52.020;113.548;2023-03-01T05:00:16;7.95;;;3.53;;
72404;SDS011;60395;52.020;113.548;2023-03-01T05:03:25;9.13;;;3.90;;
72404;SDS011;60395;52.020;113.548;2023-03-01T05:06:29;9.43;;;3.93;;
72404;SDS011;60395;52.020;113.548;2023-03-01T05:09:33;6.03;;;3.08;;
72404;SDS011;60395;52.020;113.548;2023-03-01T05:12:36;8.23;;;3.17;;
72404;SDS011;60395;52.020;113.548;2023-03-01T05:15:39;4.90;;;2.40;;
72404;SDS011;60395;52.020;113.548;2023-03-01T05:18:43;8.30;;;3.17;;
72404;SDS011;60395;52.020;113.548;2023-03-01T05:21:46;11.48;;;3.25;;
72404;SDS011;60395;52.020;113.548;2023-03-01T05:25:06;6.68;;;2.60;;
72404;SDS011;60395;52.020;113.548;2023-03-01T05:28:13;10.23;;;3.03;;
72404;SDS011;60395;52.020;113.548;2023-03-01T05:31:16;13.48;;;3.72;;
72404;SDS011;60395;52.020;113.548;2023-03-01T05:34:30;7.63;;;3.35;;
72404;SDS011;60395;52.020;113.548;2023-03-01T05:37:37;5.50;;;2.78;;
72404;SDS011;60395;52.020;113.548;2023-03-01T05:40:42;7.47;;;3.08;;
72404;SDS011;60395;52.020;113.548;2023-03-01T05:43:47;6.13;;;2.58;;
72404;SDS011;60395;52.020;113.548;2023-03-01T05:46:50;5.53;;;2.60;;
72404;SDS011;60395;52.020;113.548;2023-03-01T05:49:54;13.05;;;2.88;;
72404;SDS011;60395;52.020;113.548;2023-03-01T05:52:58;5.18;;;2.53;;
72404;SDS011;60395;52.020;113.548;2023-03-01T05:56:08;5.57;;;2.25;;
72404;SDS011;60395;52.020;113.548;2023-03-01T05:59:11;6.43;;;2.10;;
72404;SDS011;60395;52.020;113.548;2023-03-01T06:02:16;14.18;;;2.47;;
72404;SDS011;60395;52.020;113.548;2023-03-01T06:05:19;8.57;;;2.85;;
72404;SDS011;60395;52.020;113.548;2023-03-01T06:08:23;13.55;;;3.38;;
72404;SDS011;60395;52.020;113.548;2023-03-01T06:11:29;10.43;;;3.58;;
72404;SDS011;60395;52.020;113.548;2023-03-01T06:14:32;9.90;;;2.83;;
72404;SDS011;60395;52.020;113.548;2023-03-01T06:17:36;9.95;;;3.20;;
72404;SDS011;60395;52.020;113.548;2023-03-01T06:23:43;4.30;;;2.40;;
72404;SDS011;60395;52.020;113.548;2023-03-01T06:26:47;6.93;;;3.13;;
72404;SDS011;60395;52.020;113.548;2023-03-01T06:29:50;15.73;;;3.50;;
72404;SDS011;60395;52.020;113.548;2023-03-01T06:32:53;5.53;;;2.50;;
72404;SDS011;60395;52.020;113.548;2023-03-01T06:36:03;5.70;;;2.58;;
72404;SDS011;60395;52.020;113.548;2023-03-01T06:39:07;6.60;;;3.40;;
72404;SDS011;60395;52.020;113.548;2023-03-01T06:42:10;12.48;;;3.40;;
72404;SDS011;60395;52.020;113.548;2023-03-01T06:45:13;9.85;;;3.50;;
72404;SDS011;60395;52.020;113.548;2023-03-01T06:48:17;9.35;;;3.80;;
72404;SDS011;60395;52.020;113.548;2023-03-01T06:51:20;10.30;;;3.63;;
72404;SDS011;60395;52.020;113.548;2023-03-01T06:54:24;7.18;;;3.20;;
72404;SDS011;60395;52.020;113.548;2023-03-01T06:57:27;7.72;;;3.45;;
72404;SDS011;60395;52.020;113.548;2023-03-01T07:00:30;4.40;;;2.22;;
72404;SDS011;60395;52.020;113.548;2023-03-01T07:03:34;7.45;;;2.72;;
72404;SDS011;60395;52.020;113.548;2023-03-01T07:06:37;5.80;;;2.60;;
72404;SDS011;60395;52.020;113.548;2023-03-01T07:09:41;5.85;;;2.70;;
72404;SDS011;60395;52.020;113.548;2023-03-01T07:12:44;12.13;;;3.67;;
72404;SDS011;60395;52.020;113.548;2023-03-01T07:15:48;6.03;;;3.10;;
72404;SDS011;60395;52.020;113.548;2023-03-01T07:18:52;6.75;;;2.70;;
72404;SDS011;60395;52.020;113.548;2023-03-01T07:21:55;80.97;;;22.60;;
72404;SDS011;60395;52.020;113.548;2023-03-01T07:24:58;8.05;;;4.00;;
72404;SDS011;60395;52.020;113.548;2023-03-01T07:28:02;6.60;;;3.20;;
72404;SDS011;60395;52.020;113.548;2023-03-01T07:31:05;7.82;;;2.50;;
72404;SDS011;60395;52.020;113.548;2023-03-01T07:34:09;5.97;;;2.65;;
72404;SDS011;60395;52.020;113.548;2023-03-01T07:37:13;5.68;;;2.47;;
72404;SDS011;60395;52.020;113.548;2023-03-01T07:40:16;3.65;;;2.00;;
72404;SDS011;60395;52.020;113.548;2023-03-01T07:43:20;6.25;;;2.88;;
72404;SDS011;60395;52.020;113.548;2023-03-01T07:46:23;4.43;;;2.08;;
72404;SDS011;60395;52.020;113.548;2023-03-01T07:49:26;5.20;;;2.42;;
72404;SDS011;60395;52.020;113.548;2023-03-01T07:52:31;3.80;;;2.00;;
72404;SDS011;60395;52.020;113.548;2023-03-01T07:58:38;4.38;;;2.13;;
72404;SDS011;60395;52.020;113.548;2023-03-01T08:01:43;5.00;;;2.40;;
72404;SDS011;60395;52.020;113.548;2023-03-01T08:04:46;3.58;;;2.00;;
72404;SDS011;60395;52.020;113.548;2023-03-01T08:07:49;6.13;;;2.33;;
72404;SDS011;60395;52.020;113.548;2023-03-01T08:10:55;7.40;;;3.28;;
72404;SDS011;60395;52.020;113.548;2023-03-01T08:13:59;12.18;;;2.70;;
72404;SDS011;60395;52.020;113.548;2023-03-01T08:17:03;42.97;;;19.40;;
72404;SDS011;60395;52.020;113.548;2023-03-01T08:20:06;7.97;;;3.55;;
72404;SDS011;60395;52.020;113.548;2023-03-01T08:23:10;11.87;;;3.83;;
72404;SDS011;60395;52.020;113.548;2023-03-01T08:26:17;10.88;;;3.80;;
72404;SDS011;60395;52.020;113.548;2023-03-01T08:29:23;8.57;;;3.10;;
72404;SDS011;60395;52.020;113.548;2023-03-01T08:32:29;7.80;;;2.92;;
72404;SDS011;60395;52.020;113.548;2023-03-01T08:35:32;7.95;;;3.03;;
72404;SDS011;60395;52.020;113.548;2023-03-01T08:38:35;9.63;;;3.42;;
72404;SDS011;60395;52.020;113.548;2023-03-01T08:41:40;19.10;;;3.67;;
72404;SDS011;60395;52.020;113.548;2023-03-01T08:44:43;14.38;;;4.28;;
72404;SDS011;60395;52.020;113.548;2023-03-01T08:47:47;14.13;;;4.80;;
72404;SDS011;60395;52.020;113.548;2023-03-01T08:50:56;6.40;;;2.83;;
72404;SDS011;60395;52.020;113.548;2023-03-01T08:53:59;7.50;;;3.30;;
72404;SDS011;60395;52.020;113.548;2023-03-01T08:57:03;10.52;;;3.63;;
72404;SDS011;60395;52.020;113.548;2023-03-01T09:00:06;10.77;;;3.70;;
72404;SDS011;60395;52.020;113.548;2023-03-01T09:03:11;9.32;;;3.72;;
72404;SDS011;60395;52.020;113.548;2023-03-01T09:06:15;8.63;;;3.58;;
72404;SDS011;60395;52.020;113.548;2023-03-01T09:09:19;24.77;;;5.30;;
72404;SDS011;60395;52.020;113.548;2023-03-01T09:12:23;9.68;;;4.05;;
72404;SDS011;60395;52.020;113.548;2023-03-01T09:15:27;15.55;;;7.10;;
72404;SDS011;60395;52.020;113.548;2023-03-01T09:18:31;11.75;;;4.65;;
72404;SDS011;60395;52.020;113.548;2023-03-01T09:21:36;10.45;;;4.45;;
72404;SDS011;60395;52.020;113.548;2023-03-01T09:24:44;10.38;;;3.92;;
72404;SDS011;60395;52.020;113.548;2023-03-01T09:27:50;18.93;;;4.67;;
72404;SDS011;60395;52.020;113.548;2023-03-01T09:30:57;14.30;;;4.65;;
72404;SDS011;60395;52.020;113.548;2023-03-01T09:34:02;14.90;;;5.28;;
72404;SDS011;60395;52.020;113.548;2023-03-01T09:37:05;15.97;;;5.50;;
72404;SDS011;60395;52.020;113.548;2023-03-01T09:40:12;17.67;;;6.60;;
72404;SDS011;60395;52.020;113.548;2023-03-01T09:43:23;18.65;;;6.45;;
72404;SDS011;60395;52.020;113.548;2023-03-01T09:46:37;22.60;;;7.35;;
72404;SDS011;60395;52.020;113.548;2023-03-01T09:49:45;25.55;;;7.32;;
72404;SDS011;60395;52.020;113.548;2023-03-01T09:53:04;23.10;;;8.23;;
72404;SDS011;60395;52.020;113.548;2023-03-01T09:56:17;38.70;;;8.15;;
72404;SDS011;60395;52.020;113.548;2023-03-01T10:03:22;19.30;;;7.38;;
72404;SDS011;60395;52.020;113.548;2023-03-01T10:06:38;22.70;;;6.88;;
72404;SDS011;60395;52.020;113.548;2023-03-01T10:09:47;13.57;;;5.80;;
72404;SDS011;60395;52.020;113.548;2023-03-01T10:12:53;20.23;;;6.27;;
72404;SDS011;60395;52.020;113.548;2023-03-01T10:16:01;10.07;;;4.60;;
72404;SDS011;60395;52.020;113.548;2023-03-01T10:19:30;10.90;;;4.32;;
72404;SDS011;60395;52.020;113.548;2023-03-01T10:22:35;12.25;;;4.78;;
72404;SDS011;60395;52.020;113.548;2023-03-01T10:32:08;15.98;;;5.88;;
72404;SDS011;60395;52.020;113.548;2023-03-01T10:35:29;15.23;;;5.20;;
72404;SDS011;60395;52.020;113.548;2023-03-01T10:38:50;14.75;;;5.43;;
72404;SDS011;60395;52.020;113.548;2023-03-01T10:42:00;15.85;;;6.93;;
72404;SDS011;60395;52.020;113.548;2023-03-01T10:48:38;11.63;;;5.38;;
72404;SDS011;60395;52.020;113.548;2023-03-01T10:51:42;15.00;;;4.60;;
72404;SDS011;60395;52.020;113.548;2023-03-01T10:54:52;9.05;;;3.55;;
72404;SDS011;60395;52.020;113.548;2023-03-01T10:58:11;10.98;;;4.13;;
72404;SDS011;60395;52.020;113.548;2023-03-01T11:01:26;20.00;;;5.20;;
72404;SDS011;60395;52.020;113.548;2023-03-01T11:04:35;8.27;;;3.33;;
72404;SDS011;60395;52.020;113.548;2023-03-01T11:07:49;7.03;;;2.80;;
72404;SDS011;60395;52.020;113.548;2023-03-01T11:17:33;10.60;;;3.60;;
72404;SDS011;60395;52.020;113.548;2023-03-01T11:20:55;9.07;;;3.90;;
72404;SDS011;60395;52.020;113.548;2023-03-01T11:24:01;17.42;;;4.57;;
72404;SDS011;60395;52.020;113.548;2023-03-01T11:27:24;9.88;;;3.63;;
72404;SDS011;60395;52.020;113.548;2023-03-01T11:30:33;9.80;;;3.35;;
72404;SDS011;60395;52.020;113.548;2023-03-01T11:34:17;7.90;;;3.00;;
72404;SDS011;60395;52.020;113.548;2023-03-01T11:37:41;8.82;;;3.90;;
72404;SDS011;60395;52.020;113.548;2023-03-01T11:41:05;8.32;;;2.72;;
72404;SDS011;60395;52.020;113.548;2023-03-01T11:44:28;6.10;;;2.97;;
72404;SDS011;60395;52.020;113.548;2023-03-01T11:47:41;5.63;;;2.50;;
72404;SDS011;60395;52.020;113.548;2023-03-01T11:50:55;8.80;;;2.30;;
72404;SDS011;60395;52.020;113.548;2023-03-01T11:54:06;6.32;;;2.97;;
72404;SDS011;60395;52.020;113.548;2023-03-01T12:08:54;8.52;;;3.20;;
72404;SDS011;60395;52.020;113.548;2023-03-01T12:25:38;10.05;;;2.97;;
72404;SDS011;60395;52.020;113.548;2023-03-01T12:32:43;6.10;;;2.10;;
72404;SDS011;60395;52.020;113.548;2023-03-01T12:42:47;4.18;;;2.50;;
72404;SDS011;60395;52.020;113.548;2023-03-01T12:49:13;9.45;;;3.75;;
72404;SDS011;60395;52.020;113.548;2023-03-01T12:55:33;7.55;;;3.05;;
72404;SDS011;60395;52.020;113.548;2023-03-01T13:08:35;5.55;;;2.65;;
72404;SDS011;60395;52.020;113.548;2023-03-01T13:11:51;7.57;;;3.03;;
72404;SDS011;60395;52.020;113.548;2023-03-01T13:14:55;10.33;;;5.00;;
72404;SDS011;60395;52.020;113.548;2023-03-01T13:21:12;6.95;;;2.70;;
72404;SDS011;60395;52.020;113.548;2023-03-01T13:24:39;9.85;;;3.15;;
72404;SDS011;60395;52.020;113.548;2023-03-01T13:27:44;7.88;;;3.17;;
72404;SDS011;60395;52.020;113.548;2023-03-01T13:30:48;9.10;;;4.05;;
72404;SDS011;60395;52.020;113.548;2023-03-01T13:33:52;11.27;;;3.83;;
72404;SDS011;60395;52.020;113.548;2023-03-01T13:37:08;8.68;;;3.67;;
72404;SDS011;60395;52.020;113.548;2023-03-01T13:43:28;8.00;;;3.13;;
72404;SDS011;60395;52.020;113.548;2023-03-01T13:46:34;5.30;;;3.17;;
72404;SDS011;60395;52.020;113.548;2023-03-01T13:49:49;7.30;;;2.80;;
72404;SDS011;60395;52.020;113.548;2023-03-01T13:53:03;11.63;;;3.10;;
72404;SDS011;60395;52.020;113.548;2023-03-01T13:59:17;7.43;;;2.65;;
72404;SDS011;60395;52.020;113.548;2023-03-01T14:02:23;7.00;;;3.05;;
72404;SDS011;60395;52.020;113.548;2023-03-01T14:05:26;5.27;;;2.60;;
72404;SDS011;60395;52.020;113.548;2023-03-01T14:08:31;14.15;;;3.65;;
72404;SDS011;60395;52.020;113.548;2023-03-01T14:15:15;4.45;;;2.33;;
72404;SDS011;60395;52.020;113.548;2023-03-01T14:18:36;5.82;;;2.63;;
72404;SDS011;60395;52.020;113.548;2023-03-01T14:21:59;9.70;;;3.38;;
72404;SDS011;60395;52.020;113.548;2023-03-01T14:28:39;7.32;;;2.70;;
72404;SDS011;60395;52.020;113.548;2023-03-01T14:31:45;9.60;;;3.20;;
72404;SDS011;60395;52.020;113.548;2023-03-01T14:34:55;16.02;;;5.85;;
72404;SDS011;60395;52.020;113.548;2023-03-01T14:37:59;10.38;;;3.60;;
72404;SDS011;60395;52.020;113.548;2023-03-01T14:41:10;11.57;;;3.35;;
72404;SDS011;60395;52.020;113.548;2023-03-01T14:44:16;12.10;;;3.83;;
72404;SDS011;60395;52.020;113.548;2023-03-01T14:47:34;17.23;;;4.30;;
72404;SDS011;60395;52.020;113.548;2023-03-01T14:50:41;14.82;;;4.70;;
72404;SDS011;60395;52.020;113.548;2023-03-01T14:53:45;19.25;;;5.13;;
72404;SDS011;60395;52.020;113.548;2023-03-01T14:56:57;12.40;;;4.10;;
72404;SDS011;60395;52.020;113.548;2023-03-01T15:00:05;9.18;;;3.92;;
72404;SDS011;60395;52.020;113.548;2023-03-01T15:03:13;10.07;;;3.75;;
72404;SDS011;60395;52.020;113.548;2023-03-01T15:06:22;10.98;;;4.20;;
72404;SDS011;60395;52.020;113.548;2023-03-01T15:09:26;9.43;;;3.60;;
72404;SDS011;60395;52.020;113.548;2023-03-01T15:15:34;13.95;;;4.20;;
72404;SDS011;60395;52.020;113.548;2023-03-01T15:18:45;10.60;;;3.40;;
72404;SDS011;60395;52.020;113.548;2023-03-01T15:21:50;9.85;;;3.60;;
72404;SDS011;60395;52.020;113.548;2023-03-01T15:24:54;15.83;;;6.07;;
72404;SDS011;60395;52.020;113.548;2023-03-01T15:27:58;18.23;;;6.83;;
72404;SDS011;60395;52.020;113.548;2023-03-01T15:31:19;22.98;;;6.80;;
72404;SDS011;60395;52.020;113.548;2023-03-01T15:37:39;20.98;;;6.18;;
72404;SDS011;60395;52.020;113.548;2023-03-01T15:40:50;17.77;;;4.97;;
72404;SDS011;60395;52.020;113.548;2023-03-01T15:46:58;5.38;;;1.70;;
72404;SDS011;60395;52.020;113.548;2023-03-01T15:50:02;10.98;;;1.98;;
72404;SDS011;60395;52.020;113.548;2023-03-01T15:53:07;2.63;;;1.13;;
72404;SDS011;60395;52.020;113.548;2023-03-01T15:56:16;4.80;;;1.23;;
72404;SDS011;60395;52.020;113.548;2023-03-01T15:59:20;15.80;;;1.45;;
72404;SDS011;60395;52.020;113.548;2023-03-01T16:02:24;5.72;;;2.17;;
72404;SDS011;60395;52.020;113.548;2023-03-01T16:05:29;3.85;;;1.40;;
72404;SDS011;60395;52.020;113.548;2023-03-01T16:08:37;3.80;;;2.08;;
72404;SDS011;60395;52.020;113.548;2023-03-01T16:11:41;5.60;;;2.17;;
72404;SDS011;60395;52.020;113.548;2023-03-01T16:14:45;4.03;;;1.38;;
72404;SDS011;60395;52.020;113.548;2023-03-01T16:17:50;6.25;;;1.83;;
72404;SDS011;60395;52.020;113.548;2023-03-01T16:20:58;5.63;;;1.70;;
72404;SDS011;60395;52.020;113.548;2023-03-01T16:24:02;4.57;;;1.88;;
72404;SDS011;60395;52.020;113.548;2023-03-01T16:27:05;3.67;;;1.57;;
72404;SDS011;60395;52.020;113.548;2023-03-01T16:30:10;5.22;;;1.85;;
72404;SDS011;60395;52.020;113.548;2023-03-01T16:33:14;3.75;;;1.48;;
72404;SDS011;60395;52.020;113.548;2023-03-01T16:36:35;5.93;;;1.48;;
72404;SDS011;60395;52.020;113.548;2023-03-01T16:39:39;7.82;;;2.05;;
72404;SDS011;60395;52.020;113.548;2023-03-01T16:42:42;7.72;;;2.58;;
72404;SDS011;60395;52.020;113.548;2023-03-01T16:45:45;3.70;;;1.52;;
72404;SDS011;60395;52.020;113.548;2023-03-01T16:48:49;4.00;;;1.85;;
72404;SDS011;60395;52.020;113.548;2023-03-01T16:51:55;9.38;;;2.10;;
72404;SDS011;60395;52.020;113.548;2023-03-01T16:54:59;3.53;;;1.77;;
72404;SDS011;60395;52.020;113.548;2023-03-01T16:58:02;2.50;;;1.15;;
72404;SDS011;60395;52.020;113.548;2023-03-01T17:04:13;8.15;;;1.95;;
72404;SDS011;60395;52.020;113.548;2023-03-01T17:07:17;3.47;;;1.40;;
72404;SDS011;60395;52.020;113.548;2023-03-01T17:10:20;3.97;;;1.50;;
72404;SDS011;60395;52.020;113.548;2023-03-01T17:13:24;5.65;;;1.80;;
72404;SDS011;60395;52.020;113.548;2023-03-01T17:16:27;5.15;;;2.00;;
72404;SDS011;60395;52.020;113.548;2023-03-01T17:19:31;7.20;;;2.30;;
72404;SDS011;60395;52.020;113.548;2023-03-01T17:22:34;7.43;;;1.70;;
72404;SDS011;60395;52.020;113.548;2023-03-01T17:25:41;10.82;;;2.33;;
72404;SDS011;60395;52.020;113.548;2023-03-01T17:28:47;4.68;;;1.95;;
72404;SDS011;60395;52.020;113.548;2023-03-01T17:31:53;5.45;;;2.20;;
72404;SDS011;60395;52.020;113.548;2023-03-01T17:34:58;6.07;;;1.75;;
72404;SDS011;60395;52.020;113.548;2023-03-01T17:38:01;5.68;;;1.35;;
72404;SDS011;60395;52.020;113.548;2023-03-01T17:41:06;4.75;;;1.63;;
72404;SDS011;60395;52.020;113.548;2023-03-01T17:44:12;5.88;;;1.83;;
72404;SDS011;60395;52.020;113.548;2023-03-01T17:47:15;4.72;;;1.80;;
72404;SDS011;60395;52.020;113.548;2023-03-01T17:50:18;6.63;;;1.65;;
72404;SDS011;60395;52.020;113.548;2023-03-01T17:53:22;5.03;;;1.67;;
72404;SDS011;60395;52.020;113.548;2023-03-01T17:56:25;3.33;;;1.40;;
72404;SDS011;60395;52.020;113.548;2023-03-01T17:59:28;6.28;;;1.60;;
72404;SDS011;60395;52.020;113.548;2023-03-01T18:02:34;5.03;;;1.95;;
72404;SDS011;60395;52.020;113.548;2023-03-01T18:05:38;6.05;;;1.85;;
72404;SDS011;60395;52.020;113.548;2023-03-01T18:08:41;2.90;;;1.40;;
72404;SDS011;60395;52.020;113.548;2023-03-01T18:11:47;4.80;;;1.20;;
72404;SDS011;60395;52.020;113.548;2023-03-01T18:14:50;5.68;;;1.40;;
72404;SDS011;60395;52.020;113.548;2023-03-01T18:17:56;6.47;;;1.83;;
72404;SDS011;60395;52.020;113.548;2023-03-01T18:21:00;8.15;;;2.17;;
72404;SDS011;60395;52.020;113.548;2023-03-01T18:24:04;5.63;;;1.30;;
72404;SDS011;60395;52.020;113.548;2023-03-01T18:27:08;2.77;;;1.20;;
72404;SDS011;60395;52.020;113.548;2023-03-01T18:30:12;4.57;;;1.65;;
72404;SDS011;60395;52.020;113.548;2023-03-01T18:33:17;2.20;;;1.20;;
72404;SDS011;60395;52.020;113.548;2023-03-01T18:36:23;2.75;;;1.67;;
72404;SDS011;60395;52.020;113.548;2023-03-01T18:39:28;2.53;;;1.13;;
72404;SDS011;60395;52.020;113.548;2023-03-01T18:42:31;4.78;;;2.22;;
72404;SDS011;60395;52.020;113.548;2023-03-01T18:45:34;10.43;;;2.00;;
72404;SDS011;60395;52.020;113.548;2023-03-01T18:48:38;4.05;;;1.60;;
72404;SDS011;60395;52.020;113.548;2023-03-01T18:51:41;5.40;;;1.90;;
72404;SDS011;60395;52.020;113.548;2023-03-01T18:54:45;6.20;;;2.72;;
72404;SDS011;60395;52.020;113.548;2023-03-01T18:57:48;5.90;;;1.95;;
72404;SDS011;60395;52.020;113.548;2023-03-01T19:00:52;5.22;;;2.08;;
72404;SDS011;60395;52.020;113.548;2023-03-01T19:03:55;5.40;;;1.73;;
72404;SDS011;60395;52.020;113.548;2023-03-01T19:06:58;2.85;;;1.30;;
72404;SDS011;60395;52.020;113.548;2023-03-01T19:13:06;3.25;;;1.40;;
72404;SDS011;60395;52.020;113.548;2023-03-01T19:16:17;3.25;;;1.75;;
72404;SDS011;60395;52.020;113.548;2023-03-01T19:19:23;2.38;;;1.35;;
72404;SDS011;60395;52.020;113.548;2023-03-01T19:22:26;3.97;;;1.90;;
72404;SDS011;60395;52.020;113.548;2023-03-01T19:25:29;5.25;;;1.85;;
72404;SDS011;60395;52.020;113.548;2023-03-01T19:28:33;3.50;;;1.70;;
72404;SDS011;60395;52.020;113.548;2023-03-01T19:31:40;5.07;;;1.77;;
72404;SDS011;60395;52.020;113.548;2023-03-01T19:34:43;2.42;;;1.35;;
72404;SDS011;60395;52.020;113.548;2023-03-01T19:37:48;7.38;;;2.25;;
72404;SDS011;60395;52.020;113.548;2023-03-01T19:40:51;4.85;;;1.40;;
72404;SDS011;60395;52.020;113.548;2023-03-01T19:43:54;4.15;;;1.83;;
72404;SDS011;60395;52.020;113.548;2023-03-01T19:46:58;6.07;;;1.75;;
72404;SDS011;60395;52.020;113.548;2023-03-01T19:50:02;3.83;;;1.55;;
72404;SDS011;60395;52.020;113.548;2023-03-01T19:53:05;2.67;;;1.42;;
72404;SDS011;60395;52.020;113.548;2023-03-01T19:56:08;3.35;;;1.67;;
72404;SDS011;60395;52.020;113.548;2023-03-01T19:59:12;5.35;;;1.85;;
72404;SDS011;60395;52.020;113.548;2023-03-01T20:02:16;3.42;;;1.92;;
72404;SDS011;60395;52.020;113.548;2023-03-01T20:05:19;3.08;;;1.38;;
72404;SDS011;60395;52.020;113.548;2023-03-01T20:08:23;2.75;;;1.40;;
72404;SDS011;60395;52.020;113.548;2023-03-01T20:11:27;3.47;;;1.33;;
72404;SDS011;60395;52.020;113.548;2023-03-01T20:14:30;2.63;;;1.23;;